sensor_id;sensor_type;location;lat;lon;timestamp;pressure;altitude;pressure_sealevel;temperature;humidity
9281;BME280;4679;47.966;7.958;2022-07-04T04:45:24;97468.56;;;19.25;70.32
9281;BME280;4679;47.966;7.958;2022-07-04T04:47:26;97486.53;;;19.30;70.27
9281;BME280;4679;47.966;7.958;2022-07-04T04:49:28;97497.53;;;19.33;70.17
9281;BME280;4679;47.966;7.958;2022-07-04T04:51:30;97501.31;;;19.32;70.23
9281;BME280;4679;47.966;7.958;2022-07-04T04:53:31;97519.06;;;19.33;70.37
9281;BME280;4679;47.966;7.958;2022-07-04T04:55:33;97519.81;;;19.39;69.76
9281;BME280;4679;47.966;7.958;2022-07-04T04:57:35;97536.44;;;19.41;70.03
9281;BME280;4679;47.966;7.958;2022-07-04T04:59:37;97549.09;;;19.41;69.75
9281;BME280;4679;47.966;7.958;2022-07-04T05:01:40;97552.09;;;19.39;70.20
9281;BME280;4679;47.966;7.958;2022-07-04T05:03:41;97547.28;;;19.36;70.28
9281;BME280;4679;47.966;7.958;2022-07-04T05:05:44;97554.28;;;19.37;70.32
9281;BME280;4679;47.966;7.958;2022-07-04T05:07:45;97549.22;;;19.30;70.20
9281;BME280;4679;47.966;7.958;2022-07-04T05:09:47;97541.44;;;19.29;70.26
9281;BME280;4679;47.966;7.958;2022-07-04T05:11:49;97532.34;;;19.25;70.18
9281;BME280;4679;47.966;7.958;2022-07-04T05:13:51;97514.13;;;19.22;69.99
9281;BME280;4679;47.966;7.958;2022-07-04T05:15:52;97512.00;;;19.19;69.99
9281;BME280;4679;47.966;7.958;2022-07-04T05:17:55;97510.03;;;19.24;69.74
9281;BME280;4679;47.966;7.958;2022-07-04T05:19:57;97515.63;;;19.28;69.51
9281;BME280;4679;47.966;7.958;2022-07-04T05:21:59;97510.03;;;19.24;69.47
9281;BME280;4679;47.966;7.958;2022-07-04T05:24:01;97507.94;;;19.21;69.73
9281;BME280;4679;47.966;7.958;2022-07-04T05:26:02;97498.59;;;19.14;69.69
9281;BME280;4679;47.966;7.958;2022-07-04T05:28:04;97497.50;;;19.15;69.59
9281;BME280;4679;47.966;7.958;2022-07-04T05:30:08;97485.16;;;19.14;69.43
9281;BME280;4679;47.966;7.958;2022-07-04T05:32:10;97477.06;;;19.14;69.43
9281;BME280;4679;47.966;7.958;2022-07-04T05:34:13;97475.47;;;19.13;68.91
9281;BME280;4679;47.966;7.958;2022-07-04T05:36:14;97480.94;;;19.08;69.29
9281;BME280;4679;47.966;7.958;2022-07-04T05:38:16;97476.34;;;19.08;69.48
9281;BME280;4679;47.966;7.958;2022-07-04T05:40:18;97475.19;;;19.14;69.30
9281;BME280;4679;47.966;7.958;2022-07-04T05:42:21;97462.19;;;19.21;69.08
9281;BME280;4679;47.966;7.958;2022-07-04T05:44:23;97453.31;;;19.21;68.96
9281;BME280;4679;47.966;7.958;2022-07-04T05:46:25;97462.75;;;19.18;68.97
9281;BME280;4679;47.966;7.958;2022-07-04T05:48:27;97463.50;;;19.24;68.95
9281;BME280;4679;47.966;7.958;2022-07-04T05:50:30;97455.34;;;19.29;68.91
9281;BME280;4679;47.966;7.958;2022-07-04T05:52:32;97449.03;;;19.39;68.75
9281;BME280;4679;47.966;7.958;2022-07-04T05:54:34;97444.84;;;19.46;68.43
9281;BME280;4679;47.966;7.958;2022-07-04T05:56:35;97433.75;;;19.53;68.56
9281;BME280;4679;47.966;7.958;2022-07-04T05:58:38;97423.19;;;19.56;68.34
9281;BME280;4679;47.966;7.958;2022-07-04T06:00:40;97428.78;;;19.60;68.19
9281;BME280;4679;47.966;7.958;2022-07-04T06:02:42;97419.84;;;19.64;68.31
9281;BME280;4679;47.966;7.958;2022-07-04T06:04:44;97421.38;;;19.71;68.09
9281;BME280;4679;47.966;7.958;2022-07-04T06:06:47;97412.69;;;19.74;68.06
9281;BME280;4679;47.966;7.958;2022-07-04T06:08:48;97416.47;;;19.73;68.16
9281;BME280;4679;47.966;7.958;2022-07-04T06:10:50;97415.97;;;19.71;68.61
9281;BME280;4679;47.966;7.958;2022-07-04T06:12:52;97429.34;;;19.76;67.99
9281;BME280;4679;47.966;7.958;2022-07-04T06:14:54;97439.81;;;19.77;68.15
9281;BME280;4679;47.966;7.958;2022-07-04T06:16:55;97437.84;;;19.83;67.87
9281;BME280;4679;47.966;7.958;2022-07-04T06:18:57;97440.16;;;19.89;67.74
9281;BME280;4679;47.966;7.958;2022-07-04T06:20:59;97443.06;;;19.93;67.65
9281;BME280;4679;47.966;7.958;2022-07-04T06:23:02;97437.88;;;19.96;67.49
9281;BME280;4679;47.966;7.958;2022-07-04T06:25:05;97432.06;;;19.89;67.79
9281;BME280;4679;47.966;7.958;2022-07-04T06:27:06;97432.88;;;19.90;67.86
9281;BME280;4679;47.966;7.958;2022-07-04T06:29:08;97446.03;;;19.91;67.49
9281;BME280;4679;47.966;7.958;2022-07-04T06:31:11;97452.22;;;19.92;67.02
9281;BME280;4679;47.966;7.958;2022-07-04T06:33:13;97450.34;;;19.92;67.68
9281;BME280;4679;47.966;7.958;2022-07-04T06:35:18;97456.44;;;19.98;67.37
9281;BME280;4679;47.966;7.958;2022-07-04T06:37:51;97466.94;;;19.99;67.21
9281;BME280;4679;47.966;7.958;2022-07-04T06:39:54;97459.34;;;20.01;67.25
9281;BME280;4679;47.966;7.958;2022-07-04T06:41:56;97468.44;;;20.06;67.05
9281;BME280;4679;47.966;7.958;2022-07-04T06:43:58;97468.56;;;20.14;66.99
9281;BME280;4679;47.966;7.958;2022-07-04T06:45:59;97466.66;;;20.15;66.70
9281;BME280;4679;47.966;7.958;2022-07-04T06:48:02;97466.28;;;20.21;66.54
9281;BME280;4679;47.966;7.958;2022-07-04T06:50:05;97473.19;;;20.27;66.37
9281;BME280;4679;47.966;7.958;2022-07-04T06:52:07;97467.69;;;20.32;66.10
9281;BME280;4679;47.966;7.958;2022-07-04T06:54:09;97462.22;;;20.38;66.21
9281;BME280;4679;47.966;7.958;2022-07-04T06:56:12;97459.16;;;20.44;66.35
9281;BME280;4679;47.966;7.958;2022-07-04T06:58:14;97460.34;;;20.38;65.92
9281;BME280;4679;47.966;7.958;2022-07-04T07:00:16;97463.25;;;20.42;66.09
9281;BME280;4679;47.966;7.958;2022-07-04T07:02:18;97468.72;;;20.50;65.50
9281;BME280;4679;47.966;7.958;2022-07-04T07:04:20;97458.44;;;20.52;65.58
9281;BME280;4679;47.966;7.958;2022-07-04T07:06:22;97456.84;;;20.51;65.67
9281;BME280;4679;47.966;7.958;2022-07-04T07:08:24;97453.56;;;20.54;65.60
9281;BME280;4679;47.966;7.958;2022-07-04T07:10:27;97454.34;;;20.55;65.64
9281;BME280;4679;47.966;7.958;2022-07-04T07:12:30;97459.97;;;20.58;65.67
9281;BME280;4679;47.966;7.958;2022-07-04T07:14:33;97460.75;;;20.59;65.63
9281;BME280;4679;47.966;7.958;2022-07-04T07:16:34;97475.94;;;20.55;65.48
9281;BME280;4679;47.966;7.958;2022-07-04T07:18:36;97480.53;;;20.54;65.77
9281;BME280;4679;47.966;7.958;2022-07-04T07:20:38;97466.66;;;20.61;65.28
9281;BME280;4679;47.966;7.958;2022-07-04T07:22:40;97472.72;;;20.66;65.02
9281;BME280;4679;47.966;7.958;2022-07-04T07:24:42;97481.53;;;20.72;65.17
9281;BME280;4679;47.966;7.958;2022-07-04T07:26:44;97480.44;;;20.73;64.86
9281;BME280;4679;47.966;7.958;2022-07-04T07:28:47;97491.44;;;20.77;64.97
9281;BME280;4679;47.966;7.958;2022-07-04T07:30:49;97487.63;;;20.78;64.82
9281;BME280;4679;47.966;7.958;2022-07-04T07:32:51;97484.03;;;20.82;64.66
9281;BME280;4679;47.966;7.958;2022-07-04T07:34:53;97480.00;;;20.93;64.48
9281;BME280;4679;47.966;7.958;2022-07-04T07:36:54;97484.81;;;20.96;64.38
9281;BME280;4679;47.966;7.958;2022-07-04T07:38:56;97478.72;;;20.91;64.12
9281;BME280;4679;47.966;7.958;2022-07-04T07:40:58;97480.63;;;20.90;63.95
9281;BME280;4679;47.966;7.958;2022-07-04T07:43:00;97470.72;;;20.86;64.53
9281;BME280;4679;47.966;7.958;2022-07-04T07:45:04;97473.13;;;20.87;64.49
9281;BME280;4679;47.966;7.958;2022-07-04T07:47:06;97462.25;;;20.92;64.07
9281;BME280;4679;47.966;7.958;2022-07-04T07:49:08;97468.13;;;20.94;63.93
9281;BME280;4679;47.966;7.958;2022-07-04T07:51:10;97469.91;;;20.99;63.95
9281;BME280;4679;47.966;7.958;2022-07-04T07:53:14;97460.44;;;20.88;63.89
9281;BME280;4679;47.966;7.958;2022-07-04T07:55:16;97458.34;;;20.85;63.97
9281;BME280;4679;47.966;7.958;2022-07-04T07:57:18;97461.34;;;20.83;63.90
9281;BME280;4679;47.966;7.958;2022-07-04T07:59:20;97455.34;;;20.86;63.77
9281;BME280;4679;47.966;7.958;2022-07-04T08:01:23;97452.56;;;20.91;63.32
9281;BME280;4679;47.966;7.958;2022-07-04T08:03:25;97452.63;;;21.00;63.09
9281;BME280;4679;47.966;7.958;2022-07-04T08:05:44;97436.03;;;21.06;62.95
9281;BME280;4679;47.966;7.958;2022-07-04T08:07:46;97446.72;;;21.12;63.02
9281;BME280;4679;47.966;7.958;2022-07-04T08:09:48;97449.69;;;21.10;62.91
9281;BME280;4679;47.966;7.958;2022-07-04T08:11:50;97440.19;;;21.26;62.55
9281;BME280;4679;47.966;7.958;2022-07-04T08:13:52;97440.25;;;21.49;61.74
9281;BME280;4679;47.966;7.958;2022-07-04T08:15:54;97428.97;;;21.69;61.63
9281;BME280;4679;47.966;7.958;2022-07-04T08:17:57;97431.09;;;21.81;61.32
9281;BME280;4679;47.966;7.958;2022-07-04T08:19:59;97426.81;;;21.80;61.21
9281;BME280;4679;47.966;7.958;2022-07-04T08:22:01;97424.03;;;21.93;60.93
9281;BME280;4679;47.966;7.958;2022-07-04T08:24:03;97425.28;;;22.18;60.17
9281;BME280;4679;47.966;7.958;2022-07-04T08:26:05;97422.28;;;22.20;60.26
9281;BME280;4679;47.966;7.958;2022-07-04T08:28:07;97427.09;;;22.31;60.04
9281;BME280;4679;47.966;7.958;2022-07-04T08:30:09;97415.41;;;22.53;59.62
9281;BME280;4679;47.966;7.958;2022-07-04T08:32:11;97421.91;;;22.43;59.69
9281;BME280;4679;47.966;7.958;2022-07-04T08:34:14;97424.56;;;22.35;59.61
9281;BME280;4679;47.966;7.958;2022-07-04T08:36:16;97427.47;;;22.38;59.83
9281;BME280;4679;47.966;7.958;2022-07-04T08:38:18;97417.44;;;22.48;59.45
9281;BME280;4679;47.966;7.958;2022-07-04T08:40:21;97412.53;;;22.50;59.46
9281;BME280;4679;47.966;7.958;2022-07-04T08:42:23;97416.56;;;22.61;59.45
9281;BME280;4679;47.966;7.958;2022-07-04T08:44:26;97414.97;;;22.68;58.98
9281;BME280;4679;47.966;7.958;2022-07-04T08:46:30;97424.34;;;22.62;59.13
9281;BME280;4679;47.966;7.958;2022-07-04T08:48:33;97429.59;;;22.59;59.18
9281;BME280;4679;47.966;7.958;2022-07-04T08:50:38;97421.53;;;22.76;58.86
9281;BME280;4679;47.966;7.958;2022-07-04T08:52:42;97418.09;;;23.10;58.11
9281;BME280;4679;47.966;7.958;2022-07-04T08:54:48;97419.72;;;23.45;57.55
9281;BME280;4679;47.966;7.958;2022-07-04T08:57:08;97424.34;;;23.45;57.25
9281;BME280;4679;47.966;7.958;2022-07-04T08:59:27;97424.19;;;23.41;57.35
9281;BME280;4679;47.966;7.958;2022-07-04T09:01:29;97421.97;;;23.35;58.00
9281;BME280;4679;47.966;7.958;2022-07-04T09:03:32;97427.69;;;23.33;57.69
9281;BME280;4679;47.966;7.958;2022-07-04T09:05:35;97431.69;;;23.36;57.60
9281;BME280;4679;47.966;7.958;2022-07-04T09:07:37;97437.75;;;23.50;57.52
9281;BME280;4679;47.966;7.958;2022-07-04T09:09:40;97438.56;;;23.59;57.29
9281;BME280;4679;47.966;7.958;2022-07-04T09:11:42;97432.16;;;23.46;57.28
9281;BME280;4679;47.966;7.958;2022-07-04T09:13:44;97432.81;;;23.61;57.10
9281;BME280;4679;47.966;7.958;2022-07-04T09:15:48;97430.09;;;23.69;56.93
9281;BME280;4679;47.966;7.958;2022-07-04T09:17:50;97418.63;;;23.72;56.83
9281;BME280;4679;47.966;7.958;2022-07-04T09:20:12;97422.25;;;23.85;56.66
9281;BME280;4679;47.966;7.958;2022-07-04T09:22:16;97421.72;;;24.09;56.38
9281;BME280;4679;47.966;7.958;2022-07-04T09:24:41;97422.31;;;24.32;55.66
9281;BME280;4679;47.966;7.958;2022-07-04T09:26:45;97417.03;;;24.35;55.70
9281;BME280;4679;47.966;7.958;2022-07-04T09:28:51;97411.47;;;24.32;55.62
9281;BME280;4679;47.966;7.958;2022-07-04T09:30:53;97422.00;;;24.33;55.53
9281;BME280;4679;47.966;7.958;2022-07-04T09:32:57;97417.16;;;24.47;55.07
9281;BME280;4679;47.966;7.958;2022-07-04T09:35:01;97423.28;;;24.65;54.98
9281;BME280;4679;47.966;7.958;2022-07-04T09:37:04;97421.28;;;24.53;54.60
9281;BME280;4679;47.966;7.958;2022-07-04T09:39:14;97424.63;;;24.50;54.92
9281;BME280;4679;47.966;7.958;2022-07-04T09:41:17;97428.19;;;24.42;55.00
9281;BME280;4679;47.966;7.958;2022-07-04T09:43:30;97426.47;;;24.29;55.02
9281;BME280;4679;47.966;7.958;2022-07-04T09:45:32;97422.72;;;24.51;54.62
9281;BME280;4679;47.966;7.958;2022-07-04T09:47:33;97428.78;;;24.86;54.07
9281;BME280;4679;47.966;7.958;2022-07-04T09:49:35;97425.66;;;25.26;53.36
9281;BME280;4679;47.966;7.958;2022-07-04T09:51:39;97420.38;;;25.50;52.76
9281;BME280;4679;47.966;7.958;2022-07-04T09:53:41;97421.53;;;25.61;52.53
9281;BME280;4679;47.966;7.958;2022-07-04T09:55:45;97423.88;;;25.50;52.78
9281;BME280;4679;47.966;7.958;2022-07-04T09:57:47;97427.78;;;25.20;53.07
9281;BME280;4679;47.966;7.958;2022-07-04T09:59:49;97425.41;;;25.18;53.38
9281;BME280;4679;47.966;7.958;2022-07-04T10:01:51;97423.59;;;25.02;53.78
9281;BME280;4679;47.966;7.958;2022-07-04T10:03:53;97423.28;;;24.65;54.45
9281;BME280;4679;47.966;7.958;2022-07-04T10:06:03;97420.16;;;24.54;54.58
9281;BME280;4679;47.966;7.958;2022-07-04T10:08:05;97425.50;;;24.72;54.32
9281;BME280;4679;47.966;7.958;2022-07-04T10:10:30;97418.72;;;24.86;53.95
9281;BME280;4679;47.966;7.958;2022-07-04T10:12:34;97422.88;;;24.84;53.76
9281;BME280;4679;47.966;7.958;2022-07-04T10:14:36;97423.66;;;24.55;54.22
9281;BME280;4679;47.966;7.958;2022-07-04T10:16:38;97429.69;;;24.61;54.06
9281;BME280;4679;47.966;7.958;2022-07-04T10:18:40;97425.63;;;24.75;54.01
9281;BME280;4679;47.966;7.958;2022-07-04T10:20:42;97424.84;;;24.75;54.08
9281;BME280;4679;47.966;7.958;2022-07-04T10:22:46;97422.88;;;24.84;53.78
9281;BME280;4679;47.966;7.958;2022-07-04T10:24:48;97423.47;;;25.19;53.20
9281;BME280;4679;47.966;7.958;2022-07-04T10:26:50;97418.22;;;25.55;52.29
9281;BME280;4679;47.966;7.958;2022-07-04T10:28:53;97420.38;;;25.83;51.53
9281;BME280;4679;47.966;7.958;2022-07-04T10:30:57;97422.38;;;25.62;52.51
9281;BME280;4679;47.966;7.958;2022-07-04T10:33:01;97421.25;;;25.63;52.45
9281;BME280;4679;47.966;7.958;2022-07-04T10:35:04;97427.41;;;25.51;52.60
9281;BME280;4679;47.966;7.958;2022-07-04T10:37:07;97418.34;;;25.59;52.27
9281;BME280;4679;47.966;7.958;2022-07-04T10:39:09;97409.75;;;25.78;52.08
9281;BME280;4679;47.966;7.958;2022-07-04T10:41:11;97418.53;;;25.96;51.94
9281;BME280;4679;47.966;7.958;2022-07-04T10:43:52;97422.78;;;25.84;51.52
9281;BME280;4679;47.966;7.958;2022-07-04T10:45:55;97422.53;;;25.77;51.85
9281;BME280;4679;47.966;7.958;2022-07-04T10:47:57;97429.16;;;25.68;52.61
9281;BME280;4679;47.966;7.958;2022-07-04T10:49:59;97419.81;;;25.77;51.87
9281;BME280;4679;47.966;7.958;2022-07-04T10:52:11;97431.34;;;26.07;51.62
9281;BME280;4679;47.966;7.958;2022-07-04T10:54:14;97420.31;;;26.37;51.02
9281;BME280;4679;47.966;7.958;2022-07-04T10:56:35;97433.06;;;26.57;51.08
9281;BME280;4679;47.966;7.958;2022-07-04T10:58:41;97431.53;;;26.35;50.69
9281;BME280;4679;47.966;7.958;2022-07-04T11:01:09;97425.97;;;26.44;50.64
9281;BME280;4679;47.966;7.958;2022-07-04T11:03:15;97425.09;;;26.40;51.19
9281;BME280;4679;47.966;7.958;2022-07-04T11:05:30;97429.38;;;26.28;51.26
9281;BME280;4679;47.966;7.958;2022-07-04T11:07:59;97421.00;;;26.34;51.30
9281;BME280;4679;47.966;7.958;2022-07-04T11:10:19;97423.78;;;26.25;50.89
9281;BME280;4679;47.966;7.958;2022-07-04T11:12:25;97415.56;;;26.34;50.48
9281;BME280;4679;47.966;7.958;2022-07-04T11:14:41;97408.13;;;26.10;51.47
9281;BME280;4679;47.966;7.958;2022-07-04T11:16:52;97410.19;;;25.80;51.63
9281;BME280;4679;47.966;7.958;2022-07-04T11:18:54;97400.22;;;25.84;51.23
9281;BME280;4679;47.966;7.958;2022-07-04T11:20:56;97398.94;;;25.69;51.33
9281;BME280;4679;47.966;7.958;2022-07-04T11:23:03;97395.00;;;25.58;51.49
9281;BME280;4679;47.966;7.958;2022-07-04T11:25:06;97390.03;;;25.60;51.74
9281;BME280;4679;47.966;7.958;2022-07-04T11:27:09;97390.06;;;25.93;50.76
9281;BME280;4679;47.966;7.958;2022-07-04T11:29:12;97393.41;;;26.11;51.02
9281;BME280;4679;47.966;7.958;2022-07-04T11:31:14;97393.00;;;26.45;50.44
9281;BME280;4679;47.966;7.958;2022-07-04T11:33:18;97391.97;;;26.86;49.16
9281;BME280;4679;47.966;7.958;2022-07-04T11:35:20;97390.47;;;27.13;48.72
9281;BME280;4679;47.966;7.958;2022-07-04T11:37:23;97386.88;;;26.97;49.63
9281;BME280;4679;47.966;7.958;2022-07-04T11:39:25;97377.00;;;26.68;49.46
9281;BME280;4679;47.966;7.958;2022-07-04T11:41:28;97386.50;;;26.74;49.56
9281;BME280;4679;47.966;7.958;2022-07-04T11:43:47;97372.56;;;26.88;49.46
9281;BME280;4679;47.966;7.958;2022-07-04T11:46:10;97371.38;;;27.13;48.65
9281;BME280;4679;47.966;7.958;2022-07-04T11:48:21;97365.84;;;27.38;48.29
9281;BME280;4679;47.966;7.958;2022-07-04T11:50:23;97382.88;;;27.47;48.67
9281;BME280;4679;47.966;7.958;2022-07-04T11:52:27;97377.75;;;27.45;48.45
9281;BME280;4679;47.966;7.958;2022-07-04T11:54:30;97383.09;;;27.42;48.47
9281;BME280;4679;47.966;7.958;2022-07-04T11:56:32;97381.25;;;27.58;48.26
9281;BME280;4679;47.966;7.958;2022-07-04T11:58:38;97374.25;;;27.45;48.27
9281;BME280;4679;47.966;7.958;2022-07-04T12:00:41;97375.94;;;27.49;48.51
9281;BME280;4679;47.966;7.958;2022-07-04T12:02:43;97379.97;;;27.55;47.92
9281;BME280;4679;47.966;7.958;2022-07-04T12:04:47;97381.50;;;27.41;48.86
9281;BME280;4679;47.966;7.958;2022-07-04T12:06:48;97380.44;;;27.29;48.62
9281;BME280;4679;47.966;7.958;2022-07-04T12:08:50;97376.66;;;27.34;48.37
9281;BME280;4679;47.966;7.958;2022-07-04T12:10:52;97387.19;;;27.36;48.19
9281;BME280;4679;47.966;7.958;2022-07-04T12:12:55;97378.03;;;27.56;48.08
9281;BME280;4679;47.966;7.958;2022-07-04T12:15:02;97377.31;;;27.71;48.07
9281;BME280;4679;47.966;7.958;2022-07-04T12:17:15;97366.88;;;27.73;47.44
9281;BME280;4679;47.966;7.958;2022-07-04T12:19:17;97374.06;;;27.81;47.59
9281;BME280;4679;47.966;7.958;2022-07-04T12:21:21;97363.63;;;27.83;47.24
9281;BME280;4679;47.966;7.958;2022-07-04T12:23:23;97358.69;;;27.89;47.16
9281;BME280;4679;47.966;7.958;2022-07-04T12:25:28;97360.19;;;27.86;47.41
9281;BME280;4679;47.966;7.958;2022-07-04T12:27:32;97355.09;;;28.00;46.94
9281;BME280;4679;47.966;7.958;2022-07-04T12:29:34;97340.56;;;27.81;47.38
9281;BME280;4679;47.966;7.958;2022-07-04T12:31:39;97342.25;;;27.85;47.67
9281;BME280;4679;47.966;7.958;2022-07-04T12:33:53;97342.72;;;27.59;47.87
9281;BME280;4679;47.966;7.958;2022-07-04T12:35:56;97336.53;;;27.47;47.55
9281;BME280;4679;47.966;7.958;2022-07-04T12:38:05;97331.81;;;27.31;47.98
9281;BME280;4679;47.966;7.958;2022-07-04T12:40:07;97331.81;;;27.04;48.14
9281;BME280;4679;47.966;7.958;2022-07-04T12:42:10;97324.84;;;27.06;48.21
9281;BME280;4679;47.966;7.958;2022-07-04T12:44:19;97326.22;;;27.12;48.57
9281;BME280;4679;47.966;7.958;2022-07-04T12:46:29;97318.59;;;27.18;48.04
9281;BME280;4679;47.966;7.958;2022-07-04T12:48:31;97315.50;;;27.19;48.08
9281;BME280;4679;47.966;7.958;2022-07-04T12:50:33;97318.56;;;27.46;47.41
9281;BME280;4679;47.966;7.958;2022-07-04T12:52:38;97317.19;;;27.95;46.73
9281;BME280;4679;47.966;7.958;2022-07-04T12:54:42;97315.66;;;27.82;46.80
9281;BME280;4679;47.966;7.958;2022-07-04T12:56:46;97319.69;;;27.57;47.23
9281;BME280;4679;47.966;7.958;2022-07-04T12:58:48;97321.75;;;27.76;47.06
9281;BME280;4679;47.966;7.958;2022-07-04T13:00:49;97321.84;;;27.79;47.26
9281;BME280;4679;47.966;7.958;2022-07-04T13:02:51;97321.06;;;28.10;46.75
9281;BME280;4679;47.966;7.958;2022-07-04T13:04:53;97325.09;;;28.32;46.42
9281;BME280;4679;47.966;7.958;2022-07-04T13:06:55;97323.25;;;28.36;46.41
9281;BME280;4679;47.966;7.958;2022-07-04T13:08:58;97324.44;;;28.70;45.41
9281;BME280;4679;47.966;7.958;2022-07-04T13:11:01;97321.25;;;28.84;45.52
9281;BME280;4679;47.966;7.958;2022-07-04T13:13:20;97330.72;;;28.90;45.10
9281;BME280;4679;47.966;7.958;2022-07-04T13:15:22;97323.72;;;29.08;44.97
9281;BME280;4679;47.966;7.958;2022-07-04T13:17:24;97325.47;;;28.81;45.13
9281;BME280;4679;47.966;7.958;2022-07-04T13:19:26;97327.28;;;28.93;44.86
9281;BME280;4679;47.966;7.958;2022-07-04T13:21:28;97332.63;;;28.70;45.52
9281;BME280;4679;47.966;7.958;2022-07-04T13:23:30;97325.63;;;28.73;45.22
9281;BME280;4679;47.966;7.958;2022-07-04T13:25:31;97328.06;;;28.58;45.51
9281;BME280;4679;47.966;7.958;2022-07-04T13:27:35;97331.53;;;28.40;45.79
9281;BME280;4679;47.966;7.958;2022-07-04T13:29:36;97325.50;;;28.65;45.13
9281;BME280;4679;47.966;7.958;2022-07-04T13:31:38;97321.84;;;28.77;44.94
9281;BME280;4679;47.966;7.958;2022-07-04T13:33:40;97318.66;;;28.91;44.49
9281;BME280;4679;47.966;7.958;2022-07-04T13:35:42;97310.03;;;29.27;44.18
9281;BME280;4679;47.966;7.958;2022-07-04T13:37:44;97306.16;;;29.28;44.26
9281;BME280;4679;47.966;7.958;2022-07-04T13:39:45;97302.28;;;29.29;44.30
9281;BME280;4679;47.966;7.958;2022-07-04T13:41:47;97311.63;;;29.09;44.61
9281;BME280;4679;47.966;7.958;2022-07-04T13:43:50;97304.84;;;28.84;44.69
9281;BME280;4679;47.966;7.958;2022-07-04T13:45:55;97310.47;;;28.56;45.47
9281;BME280;4679;47.966;7.958;2022-07-04T13:47:57;97316.44;;;28.46;45.78
9281;BME280;4679;47.966;7.958;2022-07-04T13:49:59;97313.50;;;28.19;46.05
9281;BME280;4679;47.966;7.958;2022-07-04T13:52:00;97310.19;;;28.14;45.88
9281;BME280;4679;47.966;7.958;2022-07-04T13:54:02;97310.88;;;28.23;45.63
9281;BME280;4679;47.966;7.958;2022-07-04T13:56:05;97315.88;;;28.21;45.63
9281;BME280;4679;47.966;7.958;2022-07-04T13:58:08;97312.50;;;28.12;45.74
9281;BME280;4679;47.966;7.958;2022-07-04T14:00:11;97316.75;;;27.93;45.96
9281;BME280;4679;47.966;7.958;2022-07-04T14:02:13;97318.38;;;27.82;46.19
9281;BME280;4679;47.966;7.958;2022-07-04T14:04:15;97319.03;;;27.91;45.60
9281;BME280;4679;47.966;7.958;2022-07-04T14:06:17;97311.09;;;27.86;46.21
9281;BME280;4679;47.966;7.958;2022-07-04T14:08:19;97315.22;;;27.96;45.82
9281;BME280;4679;47.966;7.958;2022-07-04T14:10:21;97309.16;;;28.02;45.41
9281;BME280;4679;47.966;7.958;2022-07-04T14:12:24;97314.88;;;28.29;44.96
9281;BME280;4679;47.966;7.958;2022-07-04T14:14:25;97317.25;;;28.15;45.47
9281;BME280;4679;47.966;7.958;2022-07-04T14:16:29;97321.88;;;27.39;46.60
9281;BME280;4679;47.966;7.958;2022-07-04T14:18:32;97309.47;;;27.26;46.91
9281;BME280;4679;47.966;7.958;2022-07-04T14:20:33;97322.00;;;27.15;46.63
9281;BME280;4679;47.966;7.958;2022-07-04T14:22:36;97318.19;;;27.31;46.75
9281;BME280;4679;47.966;7.958;2022-07-04T14:24:38;97322.63;;;27.52;45.84
9281;BME280;4679;47.966;7.958;2022-07-04T14:26:41;97316.00;;;27.65;46.04
9281;BME280;4679;47.966;7.958;2022-07-04T14:28:43;97314.78;;;27.50;46.53
9281;BME280;4679;47.966;7.958;2022-07-04T14:30:45;97313.25;;;27.37;46.71
9281;BME280;4679;47.966;7.958;2022-07-04T14:32:48;97307.97;;;27.28;46.44
9281;BME280;4679;47.966;7.958;2022-07-04T14:34:51;97302.97;;;27.30;46.80
9281;BME280;4679;47.966;7.958;2022-07-04T14:36:52;97306.50;;;27.31;46.47
9281;BME280;4679;47.966;7.958;2022-07-04T14:38:54;97299.00;;;27.28;46.38
9281;BME280;4679;47.966;7.958;2022-07-04T14:40:56;97301.19;;;27.22;46.88
9281;BME280;4679;47.966;7.958;2022-07-04T14:43:09;97300.50;;;26.98;47.38
9281;BME280;4679;47.966;7.958;2022-07-04T14:45:11;97299.91;;;26.92;47.16
9281;BME280;4679;47.966;7.958;2022-07-04T14:47:13;97296.75;;;27.02;47.24
9281;BME280;4679;47.966;7.958;2022-07-04T14:49:16;97294.44;;;27.04;46.91
9281;BME280;4679;47.966;7.958;2022-07-04T14:51:18;97288.13;;;27.00;46.65
9281;BME280;4679;47.966;7.958;2022-07-04T14:53:20;97294.50;;;26.80;47.52
9281;BME280;4679;47.966;7.958;2022-07-04T14:55:22;97293.72;;;26.67;47.54
9281;BME280;4679;47.966;7.958;2022-07-04T14:57:23;97297.84;;;26.49;47.21
9281;BME280;4679;47.966;7.958;2022-07-04T14:59:26;97294.78;;;26.50;47.48
9281;BME280;4679;47.966;7.958;2022-07-04T15:01:27;97294.06;;;26.66;47.41
9281;BME280;4679;47.966;7.958;2022-07-04T15:03:29;97294.72;;;26.87;46.76
9281;BME280;4679;47.966;7.958;2022-07-04T15:05:32;97287.22;;;26.84;46.42
9281;BME280;4679;47.966;7.958;2022-07-04T15:07:34;97285.97;;;26.81;46.93
9281;BME280;4679;47.966;7.958;2022-07-04T15:09:36;97281.53;;;27.01;46.25
9281;BME280;4679;47.966;7.958;2022-07-04T15:11:37;97280.34;;;27.14;46.14
9281;BME280;4679;47.966;7.958;2022-07-04T15:13:39;97281.03;;;27.11;46.57
9281;BME280;4679;47.966;7.958;2022-07-04T15:15:41;97274.72;;;27.23;45.98
9281;BME280;4679;47.966;7.958;2022-07-04T15:17:43;97268.81;;;27.21;46.38
9281;BME280;4679;47.966;7.958;2022-07-04T15:19:44;97267.34;;;26.95;46.61
9281;BME280;4679;47.966;7.958;2022-07-04T15:22:05;97266.34;;;26.88;46.66
9281;BME280;4679;47.966;7.958;2022-07-04T15:24:24;97262.59;;;26.80;46.65
9281;BME280;4679;47.966;7.958;2022-07-04T15:26:25;97261.44;;;26.53;47.39
9281;BME280;4679;47.966;7.958;2022-07-04T15:28:27;97264.38;;;26.48;47.38
9281;BME280;4679;47.966;7.958;2022-07-04T15:30:29;97263.25;;;26.49;46.89
9281;BME280;4679;47.966;7.958;2022-07-04T15:32:31;97264.38;;;26.48;46.54
9281;BME280;4679;47.966;7.958;2022-07-04T15:34:33;97265.84;;;26.46;47.01
9281;BME280;4679;47.966;7.958;2022-07-04T15:36:35;97261.31;;;26.50;46.54
9281;BME280;4679;47.966;7.958;2022-07-04T15:38:38;97268.59;;;26.46;46.74
9281;BME280;4679;47.966;7.958;2022-07-04T15:40:40;97259.41;;;26.38;46.99
9281;BME280;4679;47.966;7.958;2022-07-04T15:42:43;97271.22;;;26.42;46.34
9281;BME280;4679;47.966;7.958;2022-07-04T15:44:44;97269.25;;;26.55;46.41
9281;BME280;4679;47.966;7.958;2022-07-04T15:46:46;97267.66;;;26.54;46.34
9281;BME280;4679;47.966;7.958;2022-07-04T15:49:05;97273.38;;;26.37;46.55
9281;BME280;4679;47.966;7.958;2022-07-04T15:51:07;97286.06;;;26.57;46.11
9281;BME280;4679;47.966;7.958;2022-07-04T15:53:09;97279.91;;;26.48;46.60
9281;BME280;4679;47.966;7.958;2022-07-04T15:55:12;97279.25;;;26.26;46.92
9281;BME280;4679;47.966;7.958;2022-07-04T15:57:13;97284.25;;;26.12;46.96
9281;BME280;4679;47.966;7.958;2022-07-04T15:59:15;97282.88;;;26.18;46.83